createdAt,value
2019-01-11T00:00:59.767Z,99.60
2019-01-11T00:03:28.988Z,99.60
2019-01-11T00:05:58.749Z,99.10
2019-01-11T00:08:28.268Z,99.30
2019-01-11T00:10:57.708Z,99.70
2019-01-11T00:13:26.727Z,99.30
2019-01-11T00:15:55.909Z,99.70
2019-01-11T00:18:25.349Z,99.80
2019-01-11T00:20:54.726Z,99.50
2019-01-11T00:23:24.106Z,99.90
2019-01-11T00:25:54.087Z,99.90
2019-01-11T00:28:23.167Z,99.90
2019-01-11T00:30:52.486Z,99.80
2019-01-11T00:33:22.241Z,99.90
2019-01-11T00:35:51.421Z,99.80
2019-01-11T00:38:20.481Z,99.80
2019-01-11T00:40:50.281Z,99.60
2019-01-11T00:43:19.541Z,99.60
2019-01-11T00:45:49.675Z,99.20
2019-01-11T00:48:19.203Z,99.30
2019-01-11T00:50:48.561Z,99.20
2019-01-11T00:53:18.041Z,99.00
2019-01-11T00:55:47.840Z,99.20
2019-01-11T00:58:17.321Z,99.00
2019-01-11T01:00:47.323Z,98.90
2019-01-11T01:03:16.462Z,99.10
2019-01-11T01:05:46.123Z,99.00
2019-01-11T01:08:15.123Z,99.60
2019-01-11T01:10:45.084Z,99.40
2019-01-11T01:13:14.844Z,99.00
2019-01-11T01:15:44.344Z,99.00
2019-01-11T01:18:14.503Z,98.90
2019-01-11T01:20:43.723Z,99.00
2019-01-11T01:23:13.285Z,98.40
2019-01-11T01:25:43.044Z,98.30
2019-01-11T01:28:12.803Z,98.30
2019-01-11T01:30:42.244Z,97.00
2019-01-11T01:33:11.687Z,98.10
2019-01-11T01:35:40.783Z,98.10
2019-01-11T01:38:10.143Z,98.80
2019-01-11T01:40:39.703Z,99.00
2019-01-11T01:45:37.184Z,98.40
2019-01-11T01:48:09.603Z,98.30
2019-01-11T01:50:39.222Z,98.00
2019-01-11T01:53:09.444Z,98.00
2019-01-11T01:55:38.826Z,98.20
2019-01-11T01:58:08.761Z,97.40
2019-01-11T02:00:38.089Z,96.90
2019-01-11T02:03:07.289Z,96.90
2019-01-11T02:05:36.529Z,97.20
2019-01-11T02:08:06.396Z,97.00
2019-01-11T02:10:36.252Z,96.90
2019-01-11T02:13:06.243Z,96.90
2019-01-11T02:15:35.720Z,97.30
2019-01-11T02:20:33.280Z,95.30
2019-01-11T02:23:02.541Z,95.10
2019-01-11T02:25:31.642Z,94.90
2019-01-11T02:28:00.961Z,94.70
2019-01-11T02:30:30.421Z,94.40
2019-01-11T02:32:59.943Z,94.10
2019-01-11T02:35:29.421Z,94.40
2019-01-11T02:37:58.800Z,94.40
2019-01-11T02:40:28.810Z,94.20
2019-01-11T02:42:58.340Z,93.80
2019-01-11T02:45:27.601Z,94.10
2019-01-11T02:47:56.981Z,94.70
2019-01-11T02:50:26.425Z,94.30
2019-01-11T02:52:55.461Z,93.80
2019-01-11T02:55:24.703Z,94.30
2019-01-11T02:57:54.322Z,93.00
2019-01-11T03:00:25.241Z,93.80
2019-01-11T03:02:55.164Z,94.40
2019-01-11T03:05:25.432Z,95.10
2019-01-11T03:07:55.203Z,95.40
2019-01-11T03:10:24.965Z,95.70
2019-01-11T03:12:54.400Z,96.40
2019-01-11T03:15:24.142Z,96.30
2019-01-11T03:17:53.280Z,96.40
2019-01-11T03:20:22.686Z,96.60
2019-01-11T03:22:52.480Z,96.80
2019-01-11T03:25:22.000Z,97.00
2019-01-11T03:27:51.420Z,97.30
2019-01-11T03:30:21.731Z,97.50
2019-01-11T03:32:51.222Z,97.20
2019-01-11T03:35:20.660Z,97.30
2019-01-11T03:37:50.462Z,98.70
2019-01-11T03:40:22.421Z,98.00
2019-01-11T03:42:51.982Z,98.90
2019-01-11T03:45:22.209Z,98.60
2019-01-11T03:47:51.340Z,98.40
2019-01-11T03:50:21.523Z,98.50
2019-01-11T03:52:50.959Z,98.10
2019-01-11T03:55:20.862Z,98.00
2019-01-11T03:57:56.262Z,97.60
2019-01-11T04:00:25.499Z,98.40
2019-01-11T04:02:56.671Z,98.30
2019-01-11T04:05:26.095Z,98.00
2019-01-11T04:07:55.591Z,98.00
2019-01-11T04:10:25.613Z,98.30
2019-01-11T04:12:54.810Z,98.80
2019-01-11T04:15:24.250Z,98.30
2019-01-11T04:17:58.110Z,98.70
2019-01-11T04:20:27.270Z,99.10
2019-01-11T04:22:58.313Z,96.90
2019-01-11T04:25:28.011Z,96.00
2019-01-11T04:27:57.434Z,95.60
2019-01-11T04:30:27.201Z,94.60
2019-01-11T04:32:56.640Z,95.00
2019-01-11T04:35:25.922Z,95.20
2019-01-11T04:37:55.140Z,95.20
2019-01-11T04:40:25.201Z,94.40
2019-01-11T04:42:54.400Z,94.80
2019-01-11T04:45:24.480Z,95.10
2019-01-11T04:47:53.561Z,95.60
2019-01-11T04:50:22.660Z,95.60
2019-01-11T04:55:20.821Z,96.20
2019-01-11T04:57:48.760Z,95.90
2019-01-11T05:00:23.883Z,95.30
2019-01-11T05:02:53.766Z,95.80
2019-01-11T05:05:23.064Z,96.10
2019-01-11T05:07:52.445Z,95.70
2019-01-11T05:10:22.294Z,95.50
2019-01-11T05:12:51.920Z,95.50
2019-01-11T05:15:21.021Z,94.90
2019-01-11T05:17:50.561Z,95.40
2019-01-11T05:20:19.627Z,95.50
2019-01-11T05:22:49.305Z,95.60
2019-01-11T05:25:28.321Z,94.30
2019-01-11T05:27:58.426Z,94.60
2019-01-11T05:30:27.786Z,94.90
2019-01-11T05:32:56.985Z,95.70
2019-01-11T05:35:26.286Z,95.70
2019-01-11T05:37:55.867Z,95.80
2019-01-11T05:40:25.125Z,95.60
2019-01-11T05:42:54.466Z,95.30
2019-01-11T05:45:24.453Z,95.00
2019-01-11T05:47:53.606Z,94.80
2019-01-11T05:50:24.306Z,95.00
2019-01-11T05:52:53.405Z,94.90
2019-01-11T05:55:23.968Z,95.80
2019-01-11T05:57:58.726Z,95.20
2019-01-11T06:00:28.846Z,96.90
2019-01-11T06:02:58.207Z,97.20
2019-01-11T06:05:27.610Z,98.10
2019-01-11T06:07:57.226Z,96.80
2019-01-11T06:10:26.706Z,96.70
2019-01-11T06:12:56.020Z,97.30
2019-01-11T06:15:25.560Z,97.00
2019-01-11T06:17:55.200Z,96.70
2019-01-11T06:20:30.177Z,95.60
2019-01-11T06:22:55.721Z,94.30
2019-01-11T06:25:25.361Z,94.60
2019-01-11T06:27:55.610Z,94.50
2019-01-11T06:30:25.279Z,93.30
2019-01-11T06:32:54.741Z,93.00
2019-01-11T06:35:24.085Z,93.00
2019-01-11T06:37:53.924Z,94.20
2019-01-11T06:40:23.686Z,94.30
2019-01-11T06:42:53.427Z,95.00
2019-01-11T06:45:23.508Z,94.60
2019-01-11T06:47:52.921Z,94.40
2019-01-11T06:50:22.279Z,93.70
2019-01-11T06:52:51.901Z,94.90
2019-01-11T06:55:21.920Z,95.20
2019-01-11T06:57:51.360Z,94.80
2019-01-11T07:00:23.123Z,94.00
2019-01-11T07:02:52.744Z,93.40
2019-01-11T07:05:22.370Z,93.20
2019-01-11T07:07:51.932Z,94.60
2019-01-11T07:10:23.411Z,93.30
2019-01-11T07:12:52.604Z,92.10
2019-01-11T07:15:21.901Z,92.00
2019-01-11T07:17:51.583Z,91.80
2019-01-11T07:20:21.040Z,92.10
2019-01-11T07:22:53.680Z,91.50
2019-01-11T07:25:23.541Z,91.10
2019-01-11T07:27:57.122Z,91.70
2019-01-11T07:30:28.785Z,91.80
2019-01-11T07:32:59.121Z,91.20
2019-01-11T07:35:30.280Z,92.30
2019-01-11T07:38:01.183Z,90.90
2019-01-11T07:40:30.441Z,89.10
2019-01-11T07:42:59.843Z,86.90
2019-01-11T07:45:36.481Z,90.00
2019-01-11T07:48:06.140Z,94.30
2019-01-11T07:50:35.839Z,96.60
2019-01-11T07:53:05.241Z,96.80
2019-01-11T07:55:34.779Z,97.70
2019-01-11T07:58:04.019Z,99.00
2019-01-11T08:00:33.590Z,99.90
2019-01-11T08:03:03.007Z,99.90
2019-01-11T08:05:33.481Z,99.90
2019-01-11T08:08:10.101Z,99.90
2019-01-11T08:10:40.739Z,99.90
2019-01-11T08:13:10.102Z,99.90
2019-01-11T08:15:42.899Z,99.90
2019-01-11T08:18:12.120Z,99.90
2019-01-11T08:20:41.381Z,99.90
2019-01-11T08:23:10.481Z,99.90
2019-01-11T08:25:40.181Z,99.90
2019-01-11T08:28:10.181Z,99.90
2019-01-11T08:30:39.701Z,99.90
2019-01-11T08:33:09.119Z,99.90
2019-01-11T08:35:40.181Z,99.90
2019-01-11T08:38:09.923Z,99.90
2019-01-11T08:40:39.681Z,99.90
2019-01-11T08:43:09.020Z,99.90
2019-01-11T08:45:45.379Z,99.90
2019-01-11T08:48:14.780Z,99.90
2019-01-11T08:50:44.062Z,99.90
2019-01-11T08:53:13.283Z,99.90
2019-01-11T08:55:42.404Z,99.90
2019-01-11T08:58:12.170Z,99.90
2019-01-11T09:00:41.122Z,99.90
2019-01-11T09:03:10.262Z,99.90
2019-01-11T09:05:45.407Z,99.90
2019-01-11T09:08:14.723Z,99.90
2019-01-11T09:10:43.822Z,99.90
2019-01-11T09:13:13.023Z,99.90
2019-01-11T09:15:42.543Z,99.90
2019-01-11T09:18:13.342Z,99.90
2019-01-11T09:20:44.476Z,99.90
2019-01-11T09:23:13.658Z,99.90
2019-01-11T09:28:08.917Z,99.90
2019-01-11T09:30:38.056Z,99.90
2019-01-11T09:33:07.298Z,99.90
2019-01-11T09:35:36.919Z,99.90
2019-01-11T09:38:06.499Z,99.90
2019-01-11T09:40:35.798Z,99.90
2019-01-11T09:43:04.958Z,99.90
2019-01-11T09:45:34.137Z,99.90
2019-01-11T09:48:04.117Z,99.90
2019-01-11T09:50:33.316Z,99.90
2019-01-11T09:53:03.198Z,99.90
2019-01-11T09:55:51.837Z,99.90
2019-01-11T09:58:21.357Z,99.90
2019-01-11T10:00:51.039Z,99.90
2019-01-11T10:03:20.160Z,99.90
2019-01-11T10:05:49.396Z,99.90
2019-01-11T10:08:18.496Z,99.90
2019-01-11T10:10:48.336Z,99.90
2019-01-11T10:13:17.743Z,99.90
2019-01-11T10:15:47.401Z,99.90
2019-01-11T10:18:16.822Z,99.90
2019-01-11T10:20:47.921Z,99.90
2019-01-11T10:23:17.521Z,99.90
2019-01-11T10:25:46.881Z,99.90
2019-01-11T10:28:16.942Z,99.90
2019-01-11T10:30:46.021Z,99.90
2019-01-11T10:33:15.742Z,99.90
2019-01-11T10:35:46.976Z,99.90
2019-01-11T10:38:16.561Z,99.90
2019-01-11T10:40:46.075Z,99.90
2019-01-11T10:43:15.204Z,99.90
2019-01-11T10:45:44.803Z,99.90
2019-01-11T10:48:13.875Z,99.90
2019-01-11T10:50:43.016Z,99.90
2019-01-11T10:53:12.677Z,99.90
2019-01-11T10:55:45.615Z,99.80
2019-01-11T10:58:14.738Z,99.90
2019-01-11T11:00:44.104Z,99.90
2019-01-11T11:03:14.864Z,99.90
2019-01-11T11:05:44.004Z,99.90
2019-01-11T11:08:13.104Z,99.50
2019-01-11T11:10:42.217Z,99.90
2019-01-11T11:13:12.997Z,99.70
2019-01-11T11:15:43.617Z,99.80
2019-01-11T11:18:13.137Z,99.90
2019-01-11T11:20:42.435Z,97.70
2019-01-11T11:23:11.557Z,97.40
2019-01-11T11:25:40.496Z,97.90
2019-01-11T11:28:09.679Z,97.60
2019-01-11T11:30:38.815Z,96.20
2019-01-11T11:33:08.155Z,94.00
2019-01-11T11:35:37.278Z,93.70
2019-01-11T11:38:06.837Z,94.70
2019-01-11T11:40:36.135Z,94.50
2019-01-11T11:43:05.382Z,94.00
2019-01-11T11:45:35.296Z,94.90
2019-01-11T11:48:04.417Z,95.30
2019-01-11T11:50:33.372Z,92.30
2019-01-11T11:53:02.896Z,92.40
2019-01-11T11:55:31.937Z,93.60
2019-01-11T11:58:00.867Z,93.80
2019-01-11T12:00:29.819Z,94.30
2019-01-11T12:02:58.866Z,94.70
2019-01-11T12:05:27.833Z,93.80
2019-01-11T12:07:56.788Z,93.90
2019-01-11T12:10:25.784Z,93.00
2019-01-11T12:12:55.065Z,93.20
2019-01-11T12:15:24.264Z,90.90
2019-01-11T12:17:53.323Z,94.00
2019-01-11T12:20:26.223Z,73.90
2019-01-11T12:22:55.904Z,68.00
2019-01-11T12:25:25.457Z,66.70
2019-01-11T12:27:55.790Z,67.40
2019-01-11T12:30:25.123Z,63.10
2019-01-11T12:32:54.407Z,67.40
2019-01-11T12:35:24.703Z,63.40
2019-01-11T12:37:53.950Z,64.60
2019-01-11T12:40:23.763Z,63.70
2019-01-11T12:42:52.986Z,62.90
2019-01-11T12:45:22.965Z,61.50
2019-01-11T12:47:52.407Z,61.40
2019-01-11T12:50:23.968Z,62.40
2019-01-11T12:52:53.123Z,63.80
2019-01-11T12:55:22.726Z,63.60
2019-01-11T12:57:51.803Z,62.20
2019-01-11T13:00:25.438Z,65.00
2019-01-11T13:02:54.584Z,61.70
2019-01-11T13:05:25.417Z,61.90
2019-01-11T13:07:54.538Z,60.70
2019-01-11T13:10:23.606Z,60.20
2019-01-11T13:12:53.324Z,59.40
2019-01-11T13:15:22.528Z,57.70
2019-01-11T13:17:52.544Z,58.10
2019-01-11T13:20:22.240Z,60.10
2019-01-11T13:22:52.859Z,58.90
2019-01-11T13:25:22.117Z,57.70
2019-01-11T13:27:51.196Z,58.40
2019-01-11T13:30:20.497Z,58.30
2019-01-11T13:32:50.138Z,58.40
2019-01-11T13:35:19.566Z,57.70
2019-01-11T13:37:48.722Z,56.80
2019-01-11T13:40:22.943Z,56.80
2019-01-11T13:42:52.021Z,57.00
2019-01-11T13:45:22.483Z,57.40
2019-01-11T13:47:51.942Z,56.50
2019-01-11T13:50:35.144Z,57.00
2019-01-11T13:53:05.322Z,56.60
2019-01-11T13:55:34.446Z,57.90
2019-01-11T13:58:03.536Z,57.00
2019-01-11T14:00:33.081Z,56.80
2019-01-11T14:03:02.662Z,57.20
2019-01-11T14:05:31.842Z,57.50
2019-01-11T14:08:00.942Z,56.50
2019-01-11T14:10:29.927Z,58.60
2019-01-11T14:12:58.847Z,57.60
2019-01-11T14:15:27.846Z,58.00
2019-01-11T14:17:57.037Z,57.50
2019-01-11T14:20:26.045Z,57.90
2019-01-11T14:22:55.016Z,58.30
2019-01-11T14:25:25.617Z,58.40
2019-01-11T14:28:09.557Z,58.40
2019-01-11T14:30:38.718Z,59.30
2019-01-11T14:33:09.758Z,58.50
2019-01-11T14:35:46.717Z,59.80
2019-01-11T14:38:16.296Z,60.00
2019-01-11T14:40:45.436Z,60.10
2019-01-11T14:43:14.697Z,61.00
2019-01-11T14:45:43.838Z,60.50
2019-01-11T14:48:13.535Z,59.90
2019-01-11T14:50:42.532Z,61.10
2019-01-11T14:53:11.733Z,61.60
2019-01-11T14:55:41.035Z,61.90
2019-01-11T14:58:10.531Z,62.70
2019-01-11T15:00:40.393Z,63.30
2019-01-11T15:03:09.382Z,62.90
2019-01-11T15:05:39.091Z,63.70
2019-01-11T15:08:08.060Z,64.40
2019-01-11T15:10:37.147Z,65.20
2019-01-11T15:13:06.285Z,65.30
2019-01-11T15:18:08.167Z,66.40
2019-01-11T15:20:37.105Z,67.80
2019-01-11T15:23:06.467Z,70.00
2019-01-11T15:28:14.976Z,68.70
2019-01-11T15:30:45.524Z,70.10
2019-01-11T15:33:14.607Z,69.90
2019-01-11T15:35:46.025Z,70.40
2019-01-11T15:38:15.246Z,71.40
2019-01-11T15:40:44.486Z,72.50
2019-01-11T15:43:13.725Z,73.20
2019-01-11T15:45:42.946Z,75.30
2019-01-11T15:48:15.045Z,74.60
2019-01-11T15:50:47.067Z,73.30
2019-01-11T15:53:16.128Z,72.40
2019-01-11T15:55:45.259Z,71.50
2019-01-11T15:58:14.396Z,71.20
2019-01-11T16:00:46.216Z,70.80
2019-01-11T16:03:15.556Z,72.20
2019-01-11T16:05:45.260Z,71.60
2019-01-11T16:08:14.556Z,73.50
2019-01-11T16:10:55.796Z,72.60
2019-01-11T16:13:33.998Z,73.40
2019-01-11T16:16:06.161Z,74.10
2019-01-11T16:18:35.288Z,74.90
2019-01-11T16:21:04.853Z,76.90
2019-01-11T16:23:40.016Z,76.30
2019-01-11T16:26:09.097Z,76.50
2019-01-11T16:28:38.317Z,75.40
2019-01-11T16:31:07.536Z,76.10
2019-01-11T16:33:36.737Z,76.70
2019-01-11T16:36:06.000Z,77.70
2019-01-11T16:38:35.176Z,78.30
2019-01-11T16:41:04.416Z,88.90
2019-01-11T16:43:36.286Z,81.10
2019-01-11T16:46:07.773Z,78.90
2019-01-11T16:48:36.816Z,79.20
2019-01-11T16:51:06.196Z,79.70
2019-01-11T16:53:35.756Z,78.40
2019-01-11T16:56:05.418Z,77.40
2019-01-11T16:58:34.777Z,79.20
2019-01-11T17:01:03.983Z,77.20
2019-01-11T17:03:38.623Z,77.30
2019-01-11T17:06:07.833Z,76.80
2019-01-11T17:08:36.843Z,76.60
2019-01-11T17:11:05.928Z,77.50
2019-01-11T17:13:40.694Z,77.80
2019-01-11T17:16:10.541Z,78.70
2019-01-11T17:18:39.679Z,79.20
2019-01-11T17:21:11.060Z,80.20
2019-01-11T17:23:40.821Z,79.90
2019-01-11T17:26:10.395Z,79.00
2019-01-11T17:28:39.426Z,79.70
2019-01-11T17:31:08.513Z,79.00
2019-01-11T17:33:37.555Z,79.60
2019-01-11T17:36:07.262Z,79.70
2019-01-11T17:38:36.466Z,81.10
2019-01-11T17:41:05.924Z,81.10
2019-01-11T17:43:35.019Z,81.30
2019-01-11T17:46:04.465Z,81.50
2019-01-11T17:48:35.376Z,81.50
2019-01-11T17:51:04.902Z,81.60
2019-01-11T17:53:34.395Z,82.10
2019-01-11T17:56:03.564Z,81.40
2019-01-11T17:58:32.827Z,83.10
2019-01-11T18:01:02.166Z,89.60
2019-01-11T18:03:32.703Z,90.20
2019-01-11T18:06:01.875Z,88.00
2019-01-11T18:08:31.016Z,89.20
2019-01-11T18:11:01.159Z,88.80
2019-01-11T18:13:30.215Z,90.40
2019-01-11T18:16:01.777Z,87.50
2019-01-11T18:18:30.818Z,89.30
2019-01-11T18:21:00.444Z,90.60
2019-01-11T18:23:30.055Z,94.90
2019-01-11T18:26:01.103Z,92.10
2019-01-11T18:28:30.796Z,93.10
2019-01-11T18:31:01.737Z,94.30
2019-01-11T18:33:31.576Z,92.90
2019-01-11T18:36:00.856Z,91.70
2019-01-11T18:38:29.856Z,91.40
2019-01-11T18:40:59.617Z,91.60
2019-01-11T18:43:28.956Z,91.90
2019-01-11T18:45:58.836Z,91.60
2019-01-11T18:48:31.216Z,91.20
2019-01-11T18:51:02.076Z,91.40
2019-01-11T18:53:32.796Z,91.50
2019-01-11T18:56:05.634Z,91.20
2019-01-11T18:58:33.576Z,91.50
2019-01-11T19:01:02.496Z,91.60
2019-01-11T19:03:31.932Z,91.60
2019-01-11T19:06:01.177Z,91.80
2019-01-11T19:08:33.796Z,91.90
2019-01-11T19:11:03.097Z,92.20
2019-01-11T19:13:32.817Z,92.80
2019-01-11T19:16:02.004Z,93.10
2019-01-11T19:18:31.684Z,93.00
2019-01-11T19:21:01.123Z,93.00
2019-01-11T19:23:33.104Z,93.10
2019-01-11T19:26:05.028Z,92.70
2019-01-11T19:28:35.361Z,92.50
2019-01-11T19:31:07.718Z,92.30
2019-01-11T19:33:40.643Z,92.80
2019-01-11T19:36:10.246Z,93.00
2019-01-11T19:38:40.303Z,93.80
2019-01-11T19:41:10.667Z,94.00
2019-01-11T19:43:40.243Z,94.20
2019-01-11T19:46:09.446Z,95.00
2019-01-11T19:48:40.314Z,95.10
2019-01-11T19:51:09.788Z,95.00
2019-01-11T19:53:42.069Z,96.90
2019-01-11T19:56:12.203Z,98.90
2019-01-11T19:58:43.319Z,98.10
2019-01-11T20:01:14.424Z,97.60
2019-01-11T20:03:43.667Z,97.60
2019-01-11T20:06:13.209Z,98.00
2019-01-11T20:08:42.322Z,99.90
2019-01-11T20:11:11.797Z,99.60
2019-01-11T20:13:41.418Z,98.50
2019-01-11T20:16:12.126Z,98.90
2019-01-11T20:18:41.597Z,97.80
2019-01-11T20:21:11.036Z,97.80
2019-01-11T20:23:40.756Z,98.70
2019-01-11T20:26:09.885Z,99.20
2019-01-11T20:28:45.957Z,99.90
2019-01-11T20:31:15.726Z,99.90
2019-01-11T20:33:45.682Z,97.40
2019-01-11T20:36:14.710Z,97.40
2019-01-11T20:38:43.920Z,99.90
2019-01-11T20:41:13.450Z,98.00
2019-01-11T20:43:43.154Z,97.70
2019-01-11T20:46:12.170Z,97.90
2019-01-11T20:48:41.914Z,98.10
2019-01-11T20:51:11.617Z,97.50
2019-01-11T20:53:44.021Z,97.90
2019-01-11T20:56:13.199Z,98.10
2019-01-11T20:58:42.881Z,98.40
2019-01-11T21:01:12.947Z,98.80
2019-01-11T21:03:42.607Z,99.20
2019-01-11T21:06:12.166Z,99.30
2019-01-11T21:08:41.863Z,99.30
2019-01-11T21:11:10.832Z,99.90
2019-01-11T21:13:41.860Z,99.90
2019-01-11T21:16:11.340Z,99.90
2019-01-11T21:18:40.464Z,99.90
2019-01-11T21:21:09.485Z,99.90
2019-01-11T21:23:40.525Z,99.90
2019-01-11T21:26:09.787Z,99.90
2019-01-11T21:28:39.046Z,99.90
2019-01-11T21:31:08.485Z,99.90
2019-01-11T21:33:38.036Z,99.90
2019-01-11T21:36:07.504Z,99.90
2019-01-11T21:38:36.525Z,99.90
2019-01-11T21:41:05.926Z,99.90
2019-01-11T21:43:35.025Z,99.90
2019-01-11T21:46:04.845Z,99.90
2019-01-11T21:48:34.194Z,99.90
2019-01-11T21:51:04.024Z,99.90
2019-01-11T21:53:33.404Z,99.90
2019-01-11T21:56:02.745Z,99.90
2019-01-11T21:58:31.944Z,99.90
2019-01-11T22:01:02.642Z,99.90
2019-01-11T22:03:32.663Z,99.90
2019-01-11T22:06:02.298Z,99.90
2019-01-11T22:08:31.611Z,99.90
2019-01-11T22:11:01.404Z,99.90
2019-01-11T22:13:30.557Z,99.90
2019-01-11T22:16:00.597Z,99.90
2019-01-11T22:18:31.615Z,99.90
2019-01-11T22:21:01.197Z,99.90
2019-01-11T22:23:31.031Z,99.90
2019-01-11T22:26:00.678Z,99.90
2019-01-11T22:28:30.017Z,99.90
2019-01-11T22:30:59.199Z,99.90
2019-01-11T22:33:28.579Z,99.90
2019-01-11T22:35:58.077Z,99.90
2019-01-11T22:38:27.319Z,99.90
2019-01-11T22:40:59.037Z,99.90
2019-01-11T22:43:28.299Z,99.90
2019-01-11T22:45:58.058Z,99.90
2019-01-11T22:48:27.559Z,99.90
2019-01-11T22:50:59.819Z,99.90
2019-01-11T22:53:31.579Z,99.90
2019-01-11T22:56:01.046Z,99.90
2019-01-11T22:58:30.530Z,99.90
2019-01-11T23:01:02.441Z,99.90
2019-01-11T23:03:39.661Z,99.90
2019-01-11T23:09:12.300Z,99.90
2019-01-11T23:12:04.760Z,99.90
2019-01-11T23:14:34.061Z,99.90
2019-01-11T23:17:06.200Z,99.90
2019-01-11T23:19:39.181Z,99.90
2019-01-11T23:22:09.040Z,99.90
2019-01-11T23:24:39.040Z,99.90
2019-01-11T23:27:08.308Z,99.90
2019-01-11T23:29:38.218Z,99.90
2019-01-11T23:32:07.358Z,99.90
2019-01-11T23:34:36.617Z,99.90
2019-01-11T23:37:06.238Z,99.90
2019-01-11T23:39:35.398Z,99.90
2019-01-11T23:42:07.938Z,99.90
2019-01-11T23:44:38.641Z,99.90
2019-01-11T23:47:08.036Z,99.90
2019-01-11T23:49:37.547Z,99.90
2019-01-11T23:52:07.299Z,99.90
2019-01-11T23:54:37.020Z,99.90
2019-01-11T23:57:06.766Z,99.90
2019-01-11T23:59:36.297Z,99.90
